sensor_id;sensor_type;location;lat;lon;timestamp;temperature;humidity
36442;DHT22;73131;50.820;16.274;2023-10-13T00:02:15;15.00;99.90
36442;DHT22;73131;50.820;16.274;2023-10-13T00:04:44;15.00;99.90
36442;DHT22;73131;50.820;16.274;2023-10-13T00:07:14;15.00;99.90
36442;DHT22;73131;50.820;16.274;2023-10-13T00:09:43;15.00;99.90
36442;DHT22;73131;50.820;16.274;2023-10-13T00:12:11;15.00;99.90
36442;DHT22;73131;50.820;16.274;2023-10-13T00:14:43;14.90;99.90
36442;DHT22;73131;50.820;16.274;2023-10-13T00:17:11;14.90;99.90
36442;DHT22;73131;50.820;16.274;2023-10-13T00:19:45;15.00;99.90
36442;DHT22;73131;50.820;16.274;2023-10-13T00:22:22;14.90;99.90
36442;DHT22;73131;50.820;16.274;2023-10-13T00:24:48;14.90;99.90
36442;DHT22;73131;50.820;16.274;2023-10-13T00:27:25;14.90;99.90
36442;DHT22;73131;50.820;16.274;2023-10-13T00:30:06;14.90;99.90
36442;DHT22;73131;50.820;16.274;2023-10-13T00:32:54;15.00;99.90
36442;DHT22;73131;50.820;16.274;2023-10-13T00:35:26;14.90;99.90
36442;DHT22;73131;50.820;16.274;2023-10-13T00:37:58;14.90;99.90
36442;DHT22;73131;50.820;16.274;2023-10-13T00:40:32;14.90;99.90
36442;DHT22;73131;50.820;16.274;2023-10-13T00:43:01;14.90;99.90
36442;DHT22;73131;50.820;16.274;2023-10-13T00:45:58;15.00;99.90
36442;DHT22;73131;50.820;16.274;2023-10-13T00:48:30;14.90;99.90
36442;DHT22;73131;50.820;16.274;2023-10-13T00:51:06;14.90;99.90
36442;DHT22;73131;50.820;16.274;2023-10-13T00:53:42;15.00;99.90
36442;DHT22;73131;50.820;16.274;2023-10-13T00:56:10;14.90;99.90
36442;DHT22;73131;50.820;16.274;2023-10-13T00:58:50;14.90;99.90
36442;DHT22;73131;50.820;16.274;2023-10-13T01:01:18;14.90;99.90
36442;DHT22;73131;50.820;16.274;2023-10-13T01:03:48;14.90;99.90
36442;DHT22;73131;50.820;16.274;2023-10-13T01:06:16;15.00;99.90
36442;DHT22;73131;50.820;16.274;2023-10-13T01:08:48;15.00;99.90
36442;DHT22;73131;50.820;16.274;2023-10-13T01:11:20;15.00;99.90
36442;DHT22;73131;50.820;16.274;2023-10-13T01:13:50;15.00;99.90
36442;DHT22;73131;50.820;16.274;2023-10-13T01:16:28;15.00;99.90
36442;DHT22;73131;50.820;16.274;2023-10-13T01:18:58;15.00;99.90
36442;DHT22;73131;50.820;16.274;2023-10-13T01:21:30;15.00;99.90
36442;DHT22;73131;50.820;16.274;2023-10-13T01:24:00;15.00;99.90
36442;DHT22;73131;50.820;16.274;2023-10-13T01:26:28;15.10;99.90
36442;DHT22;73131;50.820;16.274;2023-10-13T01:28:59;15.00;99.90
36442;DHT22;73131;50.820;16.274;2023-10-13T01:31:27;15.10;99.90
36442;DHT22;73131;50.820;16.274;2023-10-13T01:33:57;15.10;99.90
36442;DHT22;73131;50.820;16.274;2023-10-13T01:36:27;15.10;99.90
36442;DHT22;73131;50.820;16.274;2023-10-13T01:39:03;15.10;99.90
36442;DHT22;73131;50.820;16.274;2023-10-13T01:41:32;15.10;99.90
36442;DHT22;73131;50.820;16.274;2023-10-13T01:43:58;15.10;99.90
36442;DHT22;73131;50.820;16.274;2023-10-13T01:46:25;15.10;99.90
36442;DHT22;73131;50.820;16.274;2023-10-13T01:48:54;15.10;99.90
36442;DHT22;73131;50.820;16.274;2023-10-13T01:51:37;15.00;99.90
36442;DHT22;73131;50.820;16.274;2023-10-13T01:54:05;15.00;99.90
36442;DHT22;73131;50.820;16.274;2023-10-13T01:56:37;15.00;99.90
36442;DHT22;73131;50.820;16.274;2023-10-13T01:59:11;15.00;99.90
36442;DHT22;73131;50.820;16.274;2023-10-13T02:01:38;15.00;99.90
36442;DHT22;73131;50.820;16.274;2023-10-13T02:04:06;15.00;99.90
36442;DHT22;73131;50.820;16.274;2023-10-13T02:06:35;15.00;99.90
36442;DHT22;73131;50.820;16.274;2023-10-13T02:09:10;15.00;99.90
36442;DHT22;73131;50.820;16.274;2023-10-13T02:11:44;15.00;99.90
36442;DHT22;73131;50.820;16.274;2023-10-13T02:14:22;15.10;99.90
36442;DHT22;73131;50.820;16.274;2023-10-13T02:16:52;15.10;99.90
36442;DHT22;73131;50.820;16.274;2023-10-13T02:19:43;15.10;99.90
36442;DHT22;73131;50.820;16.274;2023-10-13T02:22:11;15.10;99.90
36442;DHT22;73131;50.820;16.274;2023-10-13T02:24:38;15.10;99.90
36442;DHT22;73131;50.820;16.274;2023-10-13T02:27:09;15.10;99.90
36442;DHT22;73131;50.820;16.274;2023-10-13T02:29:42;15.10;99.90
36442;DHT22;73131;50.820;16.274;2023-10-13T02:32:12;15.10;99.90
36442;DHT22;73131;50.820;16.274;2023-10-13T02:34:47;15.10;99.90
36442;DHT22;73131;50.820;16.274;2023-10-13T02:37:15;15.10;99.90
36442;DHT22;73131;50.820;16.274;2023-10-13T02:39:44;15.20;99.90
36442;DHT22;73131;50.820;16.274;2023-10-13T02:42:12;15.10;99.90
36442;DHT22;73131;50.820;16.274;2023-10-13T02:44:51;15.20;99.90
36442;DHT22;73131;50.820;16.274;2023-10-13T02:47:27;15.20;99.90
36442;DHT22;73131;50.820;16.274;2023-10-13T02:49:54;15.20;99.90
36442;DHT22;73131;50.820;16.274;2023-10-13T02:52:22;15.20;99.90
36442;DHT22;73131;50.820;16.274;2023-10-13T02:54:50;15.20;99.90
36442;DHT22;73131;50.820;16.274;2023-10-13T02:57:19;15.20;99.90
36442;DHT22;73131;50.820;16.274;2023-10-13T02:59:46;15.10;99.90
36442;DHT22;73131;50.820;16.274;2023-10-13T03:02:13;15.10;99.90
36442;DHT22;73131;50.820;16.274;2023-10-13T03:04:52;15.20;99.90
36442;DHT22;73131;50.820;16.274;2023-10-13T03:07:28;15.10;99.90
36442;DHT22;73131;50.820;16.274;2023-10-13T03:09:58;15.10;99.90
36442;DHT22;73131;50.820;16.274;2023-10-13T03:12:28;15.20;99.90
36442;DHT22;73131;50.820;16.274;2023-10-13T03:14:59;15.20;99.90
36442;DHT22;73131;50.820;16.274;2023-10-13T03:17:43;15.10;99.90
36442;DHT22;73131;50.820;16.274;2023-10-13T03:20:13;15.10;99.90
36442;DHT22;73131;50.820;16.274;2023-10-13T03:22:49;15.10;99.90
36442;DHT22;73131;50.820;16.274;2023-10-13T03:25:23;15.20;99.90
36442;DHT22;73131;50.820;16.274;2023-10-13T03:27:58;15.20;99.90
36442;DHT22;73131;50.820;16.274;2023-10-13T03:30:24;15.20;99.90
36442;DHT22;73131;50.820;16.274;2023-10-13T03:33:08;15.10;99.90
36442;DHT22;73131;50.820;16.274;2023-10-13T03:35:40;15.20;99.90
36442;DHT22;73131;50.820;16.274;2023-10-13T03:38:14;15.10;99.90
36442;DHT22;73131;50.820;16.274;2023-10-13T03:40:52;15.10;99.90
36442;DHT22;73131;50.820;16.274;2023-10-13T03:43:44;15.10;99.90
36442;DHT22;73131;50.820;16.274;2023-10-13T03:46:18;15.00;99.90
36442;DHT22;73131;50.820;16.274;2023-10-13T03:48:47;15.00;99.90
36442;DHT22;73131;50.820;16.274;2023-10-13T03:51:27;15.00;99.90
36442;DHT22;73131;50.820;16.274;2023-10-13T03:54:04;15.00;99.90
36442;DHT22;73131;50.820;16.274;2023-10-13T03:56:33;14.90;99.90
36442;DHT22;73131;50.820;16.274;2023-10-13T03:59:06;14.90;99.90
36442;DHT22;73131;50.820;16.274;2023-10-13T04:01:36;14.90;99.90
36442;DHT22;73131;50.820;16.274;2023-10-13T04:04:25;14.80;99.90
36442;DHT22;73131;50.820;16.274;2023-10-13T04:07:06;14.70;99.90
36442;DHT22;73131;50.820;16.274;2023-10-13T04:09:40;14.60;99.90
36442;DHT22;73131;50.820;16.274;2023-10-13T04:12:17;14.60;99.90
36442;DHT22;73131;50.820;16.274;2023-10-13T04:14:52;14.50;99.90
36442;DHT22;73131;50.820;16.274;2023-10-13T04:17:24;14.50;99.90
36442;DHT22;73131;50.820;16.274;2023-10-13T04:19:59;14.40;99.90
36442;DHT22;73131;50.820;16.274;2023-10-13T04:22:41;14.40;99.90
36442;DHT22;73131;50.820;16.274;2023-10-13T04:28:11;14.50;99.90
36442;DHT22;73131;50.820;16.274;2023-10-13T04:30:48;14.50;99.90
36442;DHT22;73131;50.820;16.274;2023-10-13T04:33:28;14.50;99.90
36442;DHT22;73131;50.820;16.274;2023-10-13T04:38:49;14.60;99.90
36442;DHT22;73131;50.820;16.274;2023-10-13T04:41:35;14.60;99.90
36442;DHT22;73131;50.820;16.274;2023-10-13T04:44:20;14.60;99.90
36442;DHT22;73131;50.820;16.274;2023-10-13T04:47:07;14.60;99.90
36442;DHT22;73131;50.820;16.274;2023-10-13T04:49:44;14.60;99.90
36442;DHT22;73131;50.820;16.274;2023-10-13T04:52:13;14.60;99.90
36442;DHT22;73131;50.820;16.274;2023-10-13T04:54:55;14.60;99.90
36442;DHT22;73131;50.820;16.274;2023-10-13T04:57:35;14.60;99.90
36442;DHT22;73131;50.820;16.274;2023-10-13T05:00:17;14.60;99.90
36442;DHT22;73131;50.820;16.274;2023-10-13T05:02:44;14.60;99.90
36442;DHT22;73131;50.820;16.274;2023-10-13T05:05:26;14.60;99.90
36442;DHT22;73131;50.820;16.274;2023-10-13T05:08:20;14.60;99.90
36442;DHT22;73131;50.820;16.274;2023-10-13T05:11:06;14.50;99.90
36442;DHT22;73131;50.820;16.274;2023-10-13T05:14:13;14.40;99.90
36442;DHT22;73131;50.820;16.274;2023-10-13T05:16:57;14.40;99.90
36442;DHT22;73131;50.820;16.274;2023-10-13T05:19:44;14.40;99.90
36442;DHT22;73131;50.820;16.274;2023-10-13T05:22:31;14.30;99.90
36442;DHT22;73131;50.820;16.274;2023-10-13T05:25:17;14.20;99.90
36442;DHT22;73131;50.820;16.274;2023-10-13T05:28:02;14.20;99.90
36442;DHT22;73131;50.820;16.274;2023-10-13T05:30:49;14.10;99.90
36442;DHT22;73131;50.820;16.274;2023-10-13T05:33:34;14.10;99.90
36442;DHT22;73131;50.820;16.274;2023-10-13T05:36:18;14.10;99.90
36442;DHT22;73131;50.820;16.274;2023-10-13T05:39:05;14.00;99.90
36442;DHT22;73131;50.820;16.274;2023-10-13T05:41:49;14.00;99.90
36442;DHT22;73131;50.820;16.274;2023-10-13T05:44:34;14.10;99.90
36442;DHT22;73131;50.820;16.274;2023-10-13T05:47:04;14.40;99.90
36442;DHT22;73131;50.820;16.274;2023-10-13T05:49:51;14.70;99.90
36442;DHT22;73131;50.820;16.274;2023-10-13T05:52:33;15.10;99.90
36442;DHT22;73131;50.820;16.274;2023-10-13T05:55:17;15.40;99.90
36442;DHT22;73131;50.820;16.274;2023-10-13T05:58:02;15.70;99.90
36442;DHT22;73131;50.820;16.274;2023-10-13T06:00:49;16.00;99.90
36442;DHT22;73131;50.820;16.274;2023-10-13T06:03:37;16.10;99.90
36442;DHT22;73131;50.820;16.274;2023-10-13T06:06:24;16.00;99.90
36442;DHT22;73131;50.820;16.274;2023-10-13T06:09:09;15.90;99.90
36442;DHT22;73131;50.820;16.274;2023-10-13T06:11:54;16.00;99.90
36442;DHT22;73131;50.820;16.274;2023-10-13T06:14:39;16.50;99.90
36442;DHT22;73131;50.820;16.274;2023-10-13T06:17:24;17.00;99.90
36442;DHT22;73131;50.820;16.274;2023-10-13T06:20:11;17.50;99.90
36442;DHT22;73131;50.820;16.274;2023-10-13T06:22:56;17.80;99.90
36442;DHT22;73131;50.820;16.274;2023-10-13T06:25:40;18.10;99.90
36442;DHT22;73131;50.820;16.274;2023-10-13T06:28:25;18.60;99.90
36442;DHT22;73131;50.820;16.274;2023-10-13T06:31:14;19.00;99.90
36442;DHT22;73131;50.820;16.274;2023-10-13T06:33:51;19.60;99.90
36442;DHT22;73131;50.820;16.274;2023-10-13T06:36:17;20.10;99.90
36442;DHT22;73131;50.820;16.274;2023-10-13T06:38:47;20.40;99.90
36442;DHT22;73131;50.820;16.274;2023-10-13T06:41:20;20.80;99.90
36442;DHT22;73131;50.820;16.274;2023-10-13T06:43:56;21.20;99.90
36442;DHT22;73131;50.820;16.274;2023-10-13T06:46:26;21.60;99.90
36442;DHT22;73131;50.820;16.274;2023-10-13T06:48:58;22.20;99.90
36442;DHT22;73131;50.820;16.274;2023-10-13T06:51:25;23.10;99.90
36442;DHT22;73131;50.820;16.274;2023-10-13T06:53:57;24.10;99.90
36442;DHT22;73131;50.820;16.274;2023-10-13T06:56:23;25.40;99.90
36442;DHT22;73131;50.820;16.274;2023-10-13T06:59:00;26.70;98.60
36442;DHT22;73131;50.820;16.274;2023-10-13T07:01:30;28.20;94.10
36442;DHT22;73131;50.820;16.274;2023-10-13T07:04:06;29.70;88.70
36442;DHT22;73131;50.820;16.274;2023-10-13T07:06:40;31.20;81.10
36442;DHT22;73131;50.820;16.274;2023-10-13T07:09:10;31.40;75.00
36442;DHT22;73131;50.820;16.274;2023-10-13T07:11:54;30.10;75.50
36442;DHT22;73131;50.820;16.274;2023-10-13T07:14:26;27.90;81.20
36442;DHT22;73131;50.820;16.274;2023-10-13T07:17:01;26.10;86.70
36442;DHT22;73131;50.820;16.274;2023-10-13T07:19:29;24.70;92.60
36442;DHT22;73131;50.820;16.274;2023-10-13T07:22:00;23.60;96.20
36442;DHT22;73131;50.820;16.274;2023-10-13T07:24:49;22.80;99.20
36442;DHT22;73131;50.820;16.274;2023-10-13T07:27:16;23.60;99.70
36442;DHT22;73131;50.820;16.274;2023-10-13T07:29:53;23.40;99.50
36442;DHT22;73131;50.820;16.274;2023-10-13T07:32:40;22.70;99.90
36442;DHT22;73131;50.820;16.274;2023-10-13T07:35:18;21.70;99.90
36442;DHT22;73131;50.820;16.274;2023-10-13T07:37:45;20.80;99.90
36442;DHT22;73131;50.820;16.274;2023-10-13T07:40:18;20.10;99.90
36442;DHT22;73131;50.820;16.274;2023-10-13T07:42:50;19.90;99.90
36442;DHT22;73131;50.820;16.274;2023-10-13T07:45:17;20.50;99.90
36442;DHT22;73131;50.820;16.274;2023-10-13T07:47:53;20.70;99.90
36442;DHT22;73131;50.820;16.274;2023-10-13T07:50:24;20.60;99.90
36442;DHT22;73131;50.820;16.274;2023-10-13T07:52:52;20.30;99.90
36442;DHT22;73131;50.820;16.274;2023-10-13T07:55:31;20.00;99.90
36442;DHT22;73131;50.820;16.274;2023-10-13T07:58:06;20.20;99.90
36442;DHT22;73131;50.820;16.274;2023-10-13T08:00:33;21.70;99.90
36442;DHT22;73131;50.820;16.274;2023-10-13T08:03:04;24.90;99.90
36442;DHT22;73131;50.820;16.274;2023-10-13T08:05:53;27.70;96.50
36442;DHT22;73131;50.820;16.274;2023-10-13T08:08:37;31.70;84.10
36442;DHT22;73131;50.820;16.274;2023-10-13T08:11:10;35.50;67.60
36442;DHT22;73131;50.820;16.274;2023-10-13T08:13:59;37.10;60.50
36442;DHT22;73131;50.820;16.274;2023-10-13T08:16:37;39.30;54.90
36442;DHT22;73131;50.820;16.274;2023-10-13T08:19:20;39.00;52.60
36442;DHT22;73131;50.820;16.274;2023-10-13T08:21:57;36.70;54.00
36442;DHT22;73131;50.820;16.274;2023-10-13T08:24:48;34.50;56.30
36442;DHT22;73131;50.820;16.274;2023-10-13T08:27:21;32.40;59.30
36442;DHT22;73131;50.820;16.274;2023-10-13T08:30:18;31.40;61.30
36442;DHT22;73131;50.820;16.274;2023-10-13T08:32:57;31.00;62.50
36442;DHT22;73131;50.820;16.274;2023-10-13T08:35:25;29.90;63.70
36442;DHT22;73131;50.820;16.274;2023-10-13T08:38:03;29.10;66.90
36442;DHT22;73131;50.820;16.274;2023-10-13T08:40:32;28.00;68.50
36442;DHT22;73131;50.820;16.274;2023-10-13T08:43:20;27.10;71.10
36442;DHT22;73131;50.820;16.274;2023-10-13T08:45:58;25.60;76.60
36442;DHT22;73131;50.820;16.274;2023-10-13T08:48:26;24.70;82.90
36442;DHT22;73131;50.820;16.274;2023-10-13T08:50:57;23.70;89.60
36442;DHT22;73131;50.820;16.274;2023-10-13T08:53:31;23.20;93.50
36442;DHT22;73131;50.820;16.274;2023-10-13T08:56:08;22.90;96.10
36442;DHT22;73131;50.820;16.274;2023-10-13T08:58:50;22.90;97.70
36442;DHT22;73131;50.820;16.274;2023-10-13T09:01:35;22.60;98.70
36442;DHT22;73131;50.820;16.274;2023-10-13T09:04:22;22.10;99.90
36442;DHT22;73131;50.820;16.274;2023-10-13T09:12:12;21.50;99.90
36442;DHT22;73131;50.820;16.274;2023-10-13T09:15:02;21.30;99.90
36442;DHT22;73131;50.820;16.274;2023-10-13T09:17:32;21.30;99.90
36442;DHT22;73131;50.820;16.274;2023-10-13T09:20:08;21.30;99.90
36442;DHT22;73131;50.820;16.274;2023-10-13T09:22:54;21.40;99.90
36442;DHT22;73131;50.820;16.274;2023-10-13T09:25:41;21.60;99.90
36442;DHT22;73131;50.820;16.274;2023-10-13T09:28:34;21.60;99.90
36442;DHT22;73131;50.820;16.274;2023-10-13T09:31:05;21.40;99.90
36442;DHT22;73131;50.820;16.274;2023-10-13T09:33:33;21.70;99.90
36442;DHT22;73131;50.820;16.274;2023-10-13T09:36:05;21.80;99.90
36442;DHT22;73131;50.820;16.274;2023-10-13T09:38:35;21.90;99.90
36442;DHT22;73131;50.820;16.274;2023-10-13T09:41:09;21.90;99.90
36442;DHT22;73131;50.820;16.274;2023-10-13T09:43:44;22.30;99.90
36442;DHT22;73131;50.820;16.274;2023-10-13T09:46:19;22.70;99.90
36442;DHT22;73131;50.820;16.274;2023-10-13T09:48:46;23.50;99.90
36442;DHT22;73131;50.820;16.274;2023-10-13T09:51:15;24.10;99.90
36442;DHT22;73131;50.820;16.274;2023-10-13T09:53:56;24.50;99.90
36442;DHT22;73131;50.820;16.274;2023-10-13T09:56:35;24.60;99.90
36442;DHT22;73131;50.820;16.274;2023-10-13T09:59:22;24.30;99.90
36442;DHT22;73131;50.820;16.274;2023-10-13T10:01:51;24.60;99.90
36442;DHT22;73131;50.820;16.274;2023-10-13T10:04:23;25.10;99.40
36442;DHT22;73131;50.820;16.274;2023-10-13T10:06:56;25.10;99.00
36442;DHT22;73131;50.820;16.274;2023-10-13T10:09:27;25.30;98.70
36442;DHT22;73131;50.820;16.274;2023-10-13T10:18:23;24.50;99.30
36442;DHT22;73131;50.820;16.274;2023-10-13T10:20:51;23.90;99.90
36442;DHT22;73131;50.820;16.274;2023-10-13T10:23:28;23.60;99.90
36442;DHT22;73131;50.820;16.274;2023-10-13T10:26:17;23.00;99.90
36442;DHT22;73131;50.820;16.274;2023-10-13T10:28:55;22.20;99.90
36442;DHT22;73131;50.820;16.274;2023-10-13T10:31:33;21.90;99.90
36442;DHT22;73131;50.820;16.274;2023-10-13T10:34:18;21.50;99.90
36442;DHT22;73131;50.820;16.274;2023-10-13T10:36:53;21.50;99.90
36442;DHT22;73131;50.820;16.274;2023-10-13T10:39:19;21.50;99.90
36442;DHT22;73131;50.820;16.274;2023-10-13T10:41:49;21.30;99.90
36442;DHT22;73131;50.820;16.274;2023-10-13T10:44:28;21.00;99.90
36442;DHT22;73131;50.820;16.274;2023-10-13T10:47:16;20.90;99.90
36442;DHT22;73131;50.820;16.274;2023-10-13T10:50:25;21.00;99.90
36442;DHT22;73131;50.820;16.274;2023-10-13T10:53:04;20.90;99.90
36442;DHT22;73131;50.820;16.274;2023-10-13T10:55:36;20.90;99.90
36442;DHT22;73131;50.820;16.274;2023-10-13T10:58:03;21.20;99.90
36442;DHT22;73131;50.820;16.274;2023-10-13T11:00:33;21.20;99.90
36442;DHT22;73131;50.820;16.274;2023-10-13T11:03:19;21.10;99.90
36442;DHT22;73131;50.820;16.274;2023-10-13T11:05:46;20.90;99.90
36442;DHT22;73131;50.820;16.274;2023-10-13T11:08:26;20.50;99.90
36442;DHT22;73131;50.820;16.274;2023-10-13T11:10:59;20.40;99.90
36442;DHT22;73131;50.820;16.274;2023-10-13T11:13:42;20.60;99.90
36442;DHT22;73131;50.820;16.274;2023-10-13T11:16:21;20.60;99.90
36442;DHT22;73131;50.820;16.274;2023-10-13T11:19:04;20.40;99.90
36442;DHT22;73131;50.820;16.274;2023-10-13T11:21:35;20.20;99.90
36442;DHT22;73131;50.820;16.274;2023-10-13T11:24:06;20.20;99.90
36442;DHT22;73131;50.820;16.274;2023-10-13T11:26:38;20.30;99.90
36442;DHT22;73131;50.820;16.274;2023-10-13T11:29:19;20.20;99.90
36442;DHT22;73131;50.820;16.274;2023-10-13T11:32:08;20.30;99.90
36442;DHT22;73131;50.820;16.274;2023-10-13T11:34:48;20.20;99.90
36442;DHT22;73131;50.820;16.274;2023-10-13T11:37:20;20.00;99.90
36442;DHT22;73131;50.820;16.274;2023-10-13T11:40:07;20.00;99.90
36442;DHT22;73131;50.820;16.274;2023-10-13T11:42:40;20.20;99.90
36442;DHT22;73131;50.820;16.274;2023-10-13T11:45:12;20.60;99.90
36442;DHT22;73131;50.820;16.274;2023-10-13T11:47:57;20.80;99.90
36442;DHT22;73131;50.820;16.274;2023-10-13T11:50:27;20.70;99.90
36442;DHT22;73131;50.820;16.274;2023-10-13T11:53:01;20.60;99.90
36442;DHT22;73131;50.820;16.274;2023-10-13T11:55:27;20.40;99.90
36442;DHT22;73131;50.820;16.274;2023-10-13T11:57:57;20.40;99.90
36442;DHT22;73131;50.820;16.274;2023-10-13T12:00:27;20.40;99.90
36442;DHT22;73131;50.820;16.274;2023-10-13T12:03:15;20.40;99.90
36442;DHT22;73131;50.820;16.274;2023-10-13T12:06:03;20.30;99.90
36442;DHT22;73131;50.820;16.274;2023-10-13T12:08:45;20.30;99.90
36442;DHT22;73131;50.820;16.274;2023-10-13T12:11:18;20.40;99.90
36442;DHT22;73131;50.820;16.274;2023-10-13T12:13:56;20.40;99.90
36442;DHT22;73131;50.820;16.274;2023-10-13T12:16:23;20.50;99.90
36442;DHT22;73131;50.820;16.274;2023-10-13T12:19:02;20.40;99.90
36442;DHT22;73131;50.820;16.274;2023-10-13T12:21:28;20.30;99.90
36442;DHT22;73131;50.820;16.274;2023-10-13T12:23:54;20.20;99.90
36442;DHT22;73131;50.820;16.274;2023-10-13T12:26:24;20.10;99.90
36442;DHT22;73131;50.820;16.274;2023-10-13T12:29:04;20.10;99.90
36442;DHT22;73131;50.820;16.274;2023-10-13T12:31:34;20.10;99.90
36442;DHT22;73131;50.820;16.274;2023-10-13T12:34:04;20.20;99.90
36442;DHT22;73131;50.820;16.274;2023-10-13T12:36:40;20.40;99.90
36442;DHT22;73131;50.820;16.274;2023-10-13T12:39:21;20.50;99.90
36442;DHT22;73131;50.820;16.274;2023-10-13T12:42:08;20.60;99.90
36442;DHT22;73131;50.820;16.274;2023-10-13T12:44:53;20.60;99.90
36442;DHT22;73131;50.820;16.274;2023-10-13T12:47:38;20.60;99.90
36442;DHT22;73131;50.820;16.274;2023-10-13T12:50:22;20.50;99.90
36442;DHT22;73131;50.820;16.274;2023-10-13T12:53:11;20.40;99.90
36442;DHT22;73131;50.820;16.274;2023-10-13T12:55:42;20.30;99.90
36442;DHT22;73131;50.820;16.274;2023-10-13T12:58:11;20.50;99.90
36442;DHT22;73131;50.820;16.274;2023-10-13T13:00:37;20.60;99.90
36442;DHT22;73131;50.820;16.274;2023-10-13T13:03:07;20.70;99.90
36442;DHT22;73131;50.820;16.274;2023-10-13T13:05:44;20.60;99.90
36442;DHT22;73131;50.820;16.274;2023-10-13T13:08:13;20.60;99.90
36442;DHT22;73131;50.820;16.274;2023-10-13T13:10:48;20.50;99.90
36442;DHT22;73131;50.820;16.274;2023-10-13T13:13:15;20.50;99.90
36442;DHT22;73131;50.820;16.274;2023-10-13T13:15:42;20.30;99.90
36442;DHT22;73131;50.820;16.274;2023-10-13T13:18:11;20.10;99.90
36442;DHT22;73131;50.820;16.274;2023-10-13T13:20:38;20.10;99.90
36442;DHT22;73131;50.820;16.274;2023-10-13T13:23:19;20.10;99.90
36442;DHT22;73131;50.820;16.274;2023-10-13T13:25:50;20.20;99.90
36442;DHT22;73131;50.820;16.274;2023-10-13T13:28:16;20.30;99.90
36442;DHT22;73131;50.820;16.274;2023-10-13T13:30:43;20.40;99.90
36442;DHT22;73131;50.820;16.274;2023-10-13T13:33:09;20.50;99.90
36442;DHT22;73131;50.820;16.274;2023-10-13T13:35:38;20.40;99.90
36442;DHT22;73131;50.820;16.274;2023-10-13T13:38:05;20.50;99.90
36442;DHT22;73131;50.820;16.274;2023-10-13T13:40:48;20.60;99.90
36442;DHT22;73131;50.820;16.274;2023-10-13T13:43:23;20.80;99.90
36442;DHT22;73131;50.820;16.274;2023-10-13T13:46:05;20.80;99.90
36442;DHT22;73131;50.820;16.274;2023-10-13T13:48:36;20.90;99.90
36442;DHT22;73131;50.820;16.274;2023-10-13T13:51:07;20.90;99.90
36442;DHT22;73131;50.820;16.274;2023-10-13T13:53:47;20.90;99.90
36442;DHT22;73131;50.820;16.274;2023-10-13T13:56:16;20.80;99.90
36442;DHT22;73131;50.820;16.274;2023-10-13T13:58:43;20.80;99.90
36442;DHT22;73131;50.820;16.274;2023-10-13T14:01:09;20.70;99.90
36442;DHT22;73131;50.820;16.274;2023-10-13T14:03:43;20.70;99.90
36442;DHT22;73131;50.820;16.274;2023-10-13T14:06:16;20.70;99.90
36442;DHT22;73131;50.820;16.274;2023-10-13T14:08:56;20.70;99.90
36442;DHT22;73131;50.820;16.274;2023-10-13T14:11:34;20.70;99.90
36442;DHT22;73131;50.820;16.274;2023-10-13T14:14:10;20.70;99.90
36442;DHT22;73131;50.820;16.274;2023-10-13T14:16:55;20.70;99.90
36442;DHT22;73131;50.820;16.274;2023-10-13T14:19:34;20.70;99.90
36442;DHT22;73131;50.820;16.274;2023-10-13T14:22:06;20.70;99.90
36442;DHT22;73131;50.820;16.274;2023-10-13T14:24:37;20.70;99.90
36442;DHT22;73131;50.820;16.274;2023-10-13T14:27:24;20.70;99.90
36442;DHT22;73131;50.820;16.274;2023-10-13T14:29:52;20.60;99.90
36442;DHT22;73131;50.820;16.274;2023-10-13T14:32:22;20.60;99.90
36442;DHT22;73131;50.820;16.274;2023-10-13T14:34:55;20.50;99.90
36442;DHT22;73131;50.820;16.274;2023-10-13T14:37:22;20.50;99.90
36442;DHT22;73131;50.820;16.274;2023-10-13T14:39:59;20.50;99.90
36442;DHT22;73131;50.820;16.274;2023-10-13T14:42:28;20.40;99.90
36442;DHT22;73131;50.820;16.274;2023-10-13T14:45:03;20.30;99.90
36442;DHT22;73131;50.820;16.274;2023-10-13T14:47:37;20.30;99.90
36442;DHT22;73131;50.820;16.274;2023-10-13T14:50:05;20.20;99.90
36442;DHT22;73131;50.820;16.274;2023-10-13T14:52:31;20.10;99.90
36442;DHT22;73131;50.820;16.274;2023-10-13T14:55:00;20.10;99.90
36442;DHT22;73131;50.820;16.274;2023-10-13T14:57:26;20.00;99.90
36442;DHT22;73131;50.820;16.274;2023-10-13T14:59:53;20.00;99.90
36442;DHT22;73131;50.820;16.274;2023-10-13T15:02:20;19.90;99.90
36442;DHT22;73131;50.820;16.274;2023-10-13T15:04:47;19.90;99.90
36442;DHT22;73131;50.820;16.274;2023-10-13T15:07:17;19.90;99.90
36442;DHT22;73131;50.820;16.274;2023-10-13T15:09:44;19.90;99.90
36442;DHT22;73131;50.820;16.274;2023-10-13T15:12:13;19.90;99.90
36442;DHT22;73131;50.820;16.274;2023-10-13T15:14:42;19.90;99.90
36442;DHT22;73131;50.820;16.274;2023-10-13T15:17:12;19.90;99.90
36442;DHT22;73131;50.820;16.274;2023-10-13T15:19:44;19.90;99.90
36442;DHT22;73131;50.820;16.274;2023-10-13T15:22:14;19.90;99.90
36442;DHT22;73131;50.820;16.274;2023-10-13T15:24:52;20.00;99.90
36442;DHT22;73131;50.820;16.274;2023-10-13T15:27:37;20.00;99.90
36442;DHT22;73131;50.820;16.274;2023-10-13T15:30:07;20.00;99.90
36442;DHT22;73131;50.820;16.274;2023-10-13T15:32:46;20.00;99.90
36442;DHT22;73131;50.820;16.274;2023-10-13T15:35:12;19.90;99.90
36442;DHT22;73131;50.820;16.274;2023-10-13T15:37:40;19.80;99.90
36442;DHT22;73131;50.820;16.274;2023-10-13T15:40:08;19.70;99.90
36442;DHT22;73131;50.820;16.274;2023-10-13T15:42:44;19.70;99.90
36442;DHT22;73131;50.820;16.274;2023-10-13T15:45:13;19.60;99.90
36442;DHT22;73131;50.820;16.274;2023-10-13T15:47:46;19.60;99.90
36442;DHT22;73131;50.820;16.274;2023-10-13T15:50:17;19.50;99.90
36442;DHT22;73131;50.820;16.274;2023-10-13T15:52:46;19.40;99.90
36442;DHT22;73131;50.820;16.274;2023-10-13T15:55:14;19.40;99.90
36442;DHT22;73131;50.820;16.274;2023-10-13T15:57:41;19.40;99.90
36442;DHT22;73131;50.820;16.274;2023-10-13T16:00:09;19.40;99.90
36442;DHT22;73131;50.820;16.274;2023-10-13T16:02:56;19.40;99.90
36442;DHT22;73131;50.820;16.274;2023-10-13T16:05:32;19.30;99.90
36442;DHT22;73131;50.820;16.274;2023-10-13T16:08:05;19.30;99.90
36442;DHT22;73131;50.820;16.274;2023-10-13T16:10:42;19.30;99.90
36442;DHT22;73131;50.820;16.274;2023-10-13T16:13:08;19.30;99.90
36442;DHT22;73131;50.820;16.274;2023-10-13T16:15:41;19.20;99.90
36442;DHT22;73131;50.820;16.274;2023-10-13T16:18:17;19.20;99.90
36442;DHT22;73131;50.820;16.274;2023-10-13T16:20:47;19.20;99.90
36442;DHT22;73131;50.820;16.274;2023-10-13T16:23:16;19.10;99.90